Time;durP1;ratioP1;P1;durP2;ratioP2;P2;SDS_P1;SDS_P2;PMS_P1;PMS_P2;Temp;Humidity;BMP_temperature;BMP_pressure;BME280_temperature;BME280_humidity;BME280_pressure;Samples;Min_cycle;Max_cycle;Signal;HPM_P1;HPM_P2
2023/03/01 00:01:09;;;;;;;28.40;24.25;;;-0.20;99.90;;;;;;7369781;19;20494;-65
2023/03/01 00:03:35;;;;;;;27.85;23.50;;;-0.20;99.90;;;;;;7372254;19;20370;-67
2023/03/01 00:06:10;;;;;;;25.13;22.43;;;-0.20;99.90;;;;;;7367757;19;20051;-68
2023/03/01 00:08:37;;;;;;;28.35;23.02;;;-0.30;99.90;;;;;;7373268;19;20018;-67
2023/03/01 00:11:21;;;;;;;27.60;21.45;;;-0.30;99.90;;;;;;7372357;19;20021;-67
2023/03/01 00:13:53;;;;;;;24.35;21.67;;;-0.40;99.90;;;;;;7373495;19;20081;-68
2023/03/01 00:16:33;;;;;;;29.10;23.80;;;-0.50;99.90;;;;;;7369457;19;20585;-67
2023/03/01 00:18:59;;;;;;;26.92;23.45;;;-0.50;99.90;;;;;;7375759;19;20037;-68
2023/03/01 00:21:26;;;;;;;26.90;23.90;;;-0.50;99.90;;;;;;7373606;19;20014;-67
2023/03/01 00:23:53;;;;;;;27.77;23.10;;;-0.50;99.90;;;;;;7372460;19;20019;-67
2023/03/01 00:26:22;;;;;;;30.52;23.80;;;-0.50;99.90;;;;;;7370401;19;20499;-67
2023/03/01 00:28:48;;;;;;;28.38;24.00;;;-0.50;99.90;;;;;;7371653;19;20541;-68
2023/03/01 00:31:17;;;;;;;30.48;25.05;;;-0.50;99.90;;;;;;7370442;19;20018;-68
2023/03/01 00:33:44;;;;;;;25.92;23.13;;;-0.50;99.90;;;;;;7372724;19;20366;-67
2023/03/01 00:36:13;;;;;;;26.33;23.40;;;-0.60;99.90;;;;;;7372360;19;20014;-67
2023/03/01 00:38:42;;;;;;;29.80;23.85;;;-0.60;99.90;;;;;;7373469;19;20011;-68
2023/03/01 00:41:12;;;;;;;30.30;24.10;;;-0.60;99.90;;;;;;7374352;19;20019;-67
2023/03/01 00:43:38;;;;;;;26.52;22.60;;;-0.60;99.90;;;;;;7374691;19;20018;-67
2023/03/01 00:46:31;;;;;;;28.25;22.27;;;-0.70;99.90;;;;;;7375542;19;20014;-67
2023/03/01 00:48:58;;;;;;;28.13;23.00;;;-0.60;99.90;;;;;;7376538;19;20018;-68
2023/03/01 00:51:28;;;;;;;25.83;23.05;;;-0.70;99.90;;;;;;7378277;19;20022;-61
2023/03/01 00:53:59;;;;;;;27.90;23.35;;;-0.70;99.90;;;;;;7379698;19;20026;-61
2023/03/01 00:56:25;;;;;;;27.45;22.75;;;-0.70;99.90;;;;;;7379306;19;20482;-62
2023/03/01 00:58:52;;;;;;;29.63;23.35;;;-0.70;99.90;;;;;;7373964;19;20025;-62
2023/03/01 01:01:22;;;;;;;29.63;24.17;;;-0.70;99.90;;;;;;7379299;19;20492;-62
2023/03/01 01:03:50;;;;;;;27.00;22.73;;;-0.80;99.90;;;;;;7376145;19;20094;-62
2023/03/01 01:06:26;;;;;;;32.38;25.25;;;-0.70;99.90;;;;;;7378945;19;20071;-62
2023/03/01 01:08:53;;;;;;;33.42;25.33;;;-0.90;99.90;;;;;;7377011;19;20014;-61
2023/03/01 01:11:21;;;;;;;32.38;26.77;;;-0.80;99.90;;;;;;7376641;19;20014;-61
2023/03/01 01:13:48;;;;;;;34.95;26.20;;;-0.80;99.90;;;;;;7380194;19;20018;-61
2023/03/01 01:16:16;;;;;;;31.17;25.45;;;-0.80;99.90;;;;;;7375855;19;20019;-62
2023/03/01 01:18:45;;;;;;;38.33;27.27;;;-0.80;99.90;;;;;;7378462;19;20497;-61
2023/03/01 01:21:19;;;;;;;35.70;25.25;;;-0.90;99.90;;;;;;7378181;19;20489;-67
2023/03/01 01:23:46;;;;;;;32.80;25.00;;;-0.90;99.90;;;;;;7373378;19;20033;-67
2023/03/01 01:26:21;;;;;;;32.05;24.63;;;-0.90;99.90;;;;;;7379203;19;20030;-67
2023/03/01 01:28:50;;;;;;;31.15;23.60;;;-1.00;99.90;;;;;;7375788;19;20030;-67
2023/03/01 01:31:17;;;;;;;30.63;24.38;;;-1.00;99.90;;;;;;7376348;19;20022;-67
2023/03/01 01:33:45;;;;;;;30.15;22.95;;;-1.00;99.90;;;;;;7377376;19;20825;-67
2023/03/01 01:36:11;;;;;;;29.98;22.38;;;-1.00;99.90;;;;;;7376254;19;20035;-67
2023/03/01 01:38:38;;;;;;;27.02;22.48;;;-1.10;99.90;;;;;;7375553;19;20019;-67
2023/03/01 01:41:06;;;;;;;31.05;23.88;;;-1.10;99.90;;;;;;7366026;19;20057;-67
2023/03/01 01:44:16;;;;;;;28.88;22.23;;;-1.00;99.90;;;;;;7365505;19;20130;-61
2023/03/01 01:46:48;;;;;;;26.88;21.13;;;-1.10;99.90;;;;;;7367490;19;20018;-61
2023/03/01 01:49:14;;;;;;;;;;;-1.10;99.90;;;;;;7367286;19;20018;-62
2023/03/01 01:51:43;;;;;;;25.95;20.13;;;-1.20;99.90;;;;;;7365553;19;19927;-61
2023/03/01 01:54:16;;;;;;;25.77;20.80;;;-1.20;99.90;;;;;;7366507;19;20041;-62
2023/03/01 01:56:48;;;;;;;25.67;19.65;;;-1.40;99.90;;;;;;7367099;19;20030;-67
2023/03/01 01:59:14;;;;;;;28.02;22.38;;;-1.40;99.90;;;;;;7367491;19;20497;-67
2023/03/01 02:01:41;;;;;;;32.03;23.08;;;-1.50;99.90;;;;;;7366517;19;20439;-67
2023/03/01 02:04:10;;;;;;;28.52;22.50;;;-1.50;99.90;;;;;;7364090;19;20048;-67
2023/03/01 02:06:50;;;;;;;34.55;22.70;;;-1.50;99.90;;;;;;7366127;19;20055;-67
2023/03/01 02:09:18;;;;;;;27.05;22.15;;;-1.50;99.90;;;;;;7367407;19;20867;-67
2023/03/01 02:11:50;;;;;;;32.03;23.50;;;-1.50;99.90;;;;;;7365773;19;20800;-68
2023/03/01 02:14:16;;;;;;;27.35;21.67;;;-1.50;99.90;;;;;;7366897;19;20347;-67
2023/03/01 02:16:43;;;;;;;24.85;20.95;;;-1.50;99.90;;;;;;7368587;19;20919;-67
2023/03/01 02:19:19;;;;;;;27.08;21.25;;;-1.60;99.90;;;;;;7369530;19;20827;-67
2023/03/01 02:21:58;;;;;;;25.63;20.83;;;-1.60;99.90;;;;;;7365557;19;20659;-61
2023/03/01 02:25:03;;;;;;;26.67;21.00;;;-1.60;99.90;;;;;;7370871;19;20097;-67
2023/03/01 02:27:41;;;;;;;27.35;21.15;;;-1.60;99.90;;;;;;7364909;19;20022;-67
2023/03/01 02:30:09;;;;;;;27.02;22.27;;;-1.60;99.90;;;;;;7363696;19;20074;-61
2023/03/01 02:32:41;;;;;;;24.70;19.90;;;-1.70;99.90;;;;;;7367963;19;20470;-61
2023/03/01 02:35:14;;;;;;;30.10;23.00;;;-1.60;99.90;;;;;;7364940;19;20018;-66
2023/03/01 02:37:42;;;;;;;26.85;20.48;;;-1.60;99.90;;;;;;7364259;19;20027;-66
2023/03/01 02:40:13;;;;;;;25.83;20.35;;;-1.70;99.90;;;;;;7368041;19;20449;-67
2023/03/01 02:43:08;;;;;;;27.58;20.67;;;-1.70;99.90;;;;;;7366126;19;20116;-67
2023/03/01 02:45:34;;;;;;;26.33;21.30;;;-1.80;99.90;;;;;;7365864;19;20374;-66
2023/03/01 02:48:00;;;;;;;26.33;21.23;;;-1.80;99.90;;;;;;7365264;19;20400;-66
2023/03/01 02:50:30;;;;;;;26.60;21.08;;;-1.80;99.90;;;;;;7364823;19;20103;-66
2023/03/01 02:53:32;;;;;;;28.38;20.77;;;-1.80;99.90;;;;;;7366107;19;20022;-66
2023/03/01 02:55:59;;;;;;;27.53;20.23;;;-1.90;99.90;;;;;;7363792;19;20464;-66
2023/03/01 02:58:26;;;;;;;27.75;22.00;;;-1.90;99.90;;;;;;7364007;19;20026;-66
2023/03/01 03:00:53;;;;;;;24.55;20.25;;;-1.90;99.90;;;;;;7365864;19;20018;-66
2023/03/01 03:03:21;;;;;;;27.20;21.20;;;-1.90;99.90;;;;;;7365336;19;21244;-66
2023/03/01 03:05:48;;;;;;;25.75;21.70;;;-2.00;99.90;;;;;;7361609;19;20022;-66
2023/03/01 03:08:23;;;;;;;25.63;20.88;;;-2.00;99.90;;;;;;7364765;19;20027;-66
2023/03/01 03:10:50;;;;;;;25.67;20.55;;;-2.00;99.90;;;;;;7364078;19;20010;-61
2023/03/01 03:13:16;;;;;;;24.80;20.27;;;-2.00;99.90;;;;;;7364326;19;20058;-61
2023/03/01 03:15:45;;;;;;;22.73;17.88;;;-2.10;99.90;;;;;;7364964;19;20017;-61
2023/03/01 03:18:16;;;;;;;23.77;18.95;;;-2.10;99.90;;;;;;7361998;19;20043;-60
2023/03/01 03:20:44;;;;;;;23.40;18.48;;;-2.10;99.90;;;;;;7364809;19;20022;-63
2023/03/01 03:23:10;;;;;;;19.73;17.50;;;-2.10;99.90;;;;;;7364683;19;20018;-61
2023/03/01 03:25:37;;;;;;;23.23;18.75;;;-2.20;99.90;;;;;;7369727;19;20022;-61
2023/03/01 03:28:09;;;;;;;25.17;21.45;;;-2.20;99.90;;;;;;7368639;19;20026;-61
2023/03/01 03:30:38;;;;;;;;;;;-2.20;99.90;;;;;;7369725;19;20022;-61
2023/03/01 03:33:06;;;;;;;23.40;19.50;;;-2.20;99.90;;;;;;7365784;19;19926;-61
2023/03/01 03:35:39;;;;;;;22.42;19.92;;;-2.20;99.90;;;;;;7366221;19;20021;-61
2023/03/01 03:38:15;;;;;;;22.58;19.45;;;-2.10;99.90;;;;;;7363588;19;20028;-61
2023/03/01 03:41:00;;;;;;;23.35;20.83;;;-2.20;99.90;;;;;;7366408;19;20019;-61
2023/03/01 03:43:27;;;;;;;25.13;20.60;;;-2.20;99.90;;;;;;7367561;19;20789;-61
2023/03/01 03:45:56;;;;;;;25.20;21.38;;;-2.10;99.90;;;;;;7365063;19;20797;-66
2023/03/01 03:48:24;;;;;;;24.35;20.95;;;-2.20;99.90;;;;;;7368214;19;20018;-66
2023/03/01 03:50:53;;;;;;;21.67;19.27;;;-2.20;99.90;;;;;;7359530;19;20014;-66
2023/03/01 03:53:21;;;;;;;23.17;19.80;;;-2.30;99.90;;;;;;7374512;19;20023;-66
2023/03/01 03:55:49;;;;;;;22.48;20.08;;;-2.20;99.90;;;;;;7373550;19;20025;-66
2023/03/01 03:58:16;;;;;;;22.52;19.15;;;-2.30;99.90;;;;;;7372276;19;20824;-66
2023/03/01 04:00:44;;;;;;;24.05;20.27;;;-2.30;99.90;;;;;;7371631;19;20126;-66
2023/03/01 04:03:12;;;;;;;23.65;20.42;;;-2.30;99.90;;;;;;7370693;19;20033;-66
2023/03/01 04:05:40;;;;;;;21.83;19.45;;;-2.30;99.90;;;;;;7372868;19;20452;-66
2023/03/01 04:08:07;;;;;;;21.80;18.25;;;-2.30;99.90;;;;;;7366109;19;20381;-66
2023/03/01 04:10:37;;;;;;;23.58;20.23;;;-2.40;99.90;;;;;;7369529;19;20018;-66
2023/03/01 04:13:05;;;;;;;22.63;20.02;;;-2.30;99.90;;;;;;7370052;19;20026;-66
2023/03/01 04:15:32;;;;;;;23.70;19.77;;;-2.40;99.90;;;;;;7371687;19;20019;-66
2023/03/01 04:18:05;;;;;;;23.80;20.02;;;-2.30;99.90;;;;;;7372364;19;20607;-66
2023/03/01 04:20:35;;;;;;;23.67;20.05;;;-2.40;99.90;;;;;;7368889;19;20019;-61
2023/03/01 04:23:15;;;;;;;23.60;20.88;;;-2.30;99.90;;;;;;7369530;19;20023;-63
2023/03/01 04:25:53;;;;;;;23.50;20.55;;;-2.40;99.90;;;;;;7371136;19;20086;-66
2023/03/01 04:28:26;;;;;;;23.92;21.35;;;-2.40;99.90;;;;;;7371206;19;20014;-65
2023/03/01 04:30:56;;;;;;;23.63;21.10;;;-2.40;99.90;;;;;;7369326;19;20345;-65
2023/03/01 04:33:23;;;;;;;20.85;17.80;;;-2.40;99.90;;;;;;7371505;19;20011;-65
2023/03/01 04:35:50;;;;;;;23.15;20.20;;;-2.40;99.90;;;;;;7369936;19;20033;-65
2023/03/01 04:38:18;;;;;;;24.90;20.00;;;-2.40;99.90;;;;;;7370194;19;20086;-61
2023/03/01 04:40:44;;;;;;;25.48;21.88;;;-2.40;99.90;;;;;;7369135;19;20511;-65
2023/03/01 04:43:14;;;;;;;23.10;20.48;;;-2.40;99.90;;;;;;7371151;19;20081;-65
2023/03/01 04:45:41;;;;;;;23.80;20.17;;;-2.50;99.90;;;;;;7372380;19;20019;-65
2023/03/01 04:48:09;;;;;;;22.35;19.27;;;-2.50;99.90;;;;;;7369505;19;20023;-61
2023/03/01 04:50:36;;;;;;;20.45;17.30;;;-2.50;99.90;;;;;;7369545;19;20019;-61
2023/03/01 04:53:05;;;;;;;20.92;18.13;;;-2.60;99.90;;;;;;7368779;19;20030;-65
2023/03/01 04:55:31;;;;;;;20.90;18.65;;;-2.60;99.90;;;;;;7372616;19;20022;-65
2023/03/01 04:57:57;;;;;;;22.30;18.70;;;-2.60;99.90;;;;;;7366818;19;20588;-66
2023/03/01 05:00:27;;;;;;;22.80;18.48;;;-2.70;99.90;;;;;;7370108;19;20047;-61
2023/03/01 05:02:56;;;;;;;22.95;19.77;;;-2.60;99.90;;;;;;7370904;19;20388;-65
2023/03/01 05:05:26;;;;;;;23.05;19.27;;;-2.60;99.90;;;;;;7370981;19;20907;-65
2023/03/01 05:07:55;;;;;;;24.20;19.85;;;-2.60;99.90;;;;;;7367281;19;20018;-65
2023/03/01 05:10:22;;;;;;;23.23;20.38;;;-2.70;99.90;;;;;;7369039;19;20397;-65
2023/03/01 05:12:49;;;;;;;21.63;19.38;;;-2.70;99.90;;;;;;7369565;19;20251;-65
2023/03/01 05:15:16;;;;;;;23.98;20.30;;;-2.70;99.90;;;;;;7369031;19;20376;-65
2023/03/01 05:17:42;;;;;;;23.75;20.95;;;-2.70;99.90;;;;;;7370616;19;20029;-65
2023/03/01 05:20:12;;;;;;;27.13;22.13;;;-2.70;99.90;;;;;;7367082;19;20027;-65
2023/03/01 05:22:38;;;;;;;25.13;21.23;;;-2.70;99.90;;;;;;7369705;19;20022;-65
2023/03/01 05:25:07;;;;;;;26.17;20.90;;;-2.70;99.90;;;;;;7367065;19;20854;-65
2023/03/01 05:27:34;;;;;;;22.60;20.13;;;-2.70;99.90;;;;;;7361726;19;20036;-65
2023/03/01 05:30:13;;;;;;;24.35;21.60;;;-2.80;99.90;;;;;;7373303;19;20015;-65
2023/03/01 05:32:55;;;;;;;25.25;21.35;;;-2.80;99.90;;;;;;7375138;19;20018;-65
2023/03/01 05:35:22;;;;;;;25.20;20.58;;;-2.80;99.90;;;;;;7376152;19;20015;-65
2023/03/01 05:37:49;;;;;;;24.63;20.63;;;-2.80;99.90;;;;;;7371847;19;20022;-60
2023/03/01 05:40:20;;;;;;;23.70;18.85;;;-2.90;99.90;;;;;;7373492;19;20029;-65
2023/03/01 05:42:56;;;;;;;24.88;20.60;;;-2.80;99.90;;;;;;7372922;19;20764;-65
2023/03/01 05:45:25;;;;;;;22.40;18.63;;;-2.90;99.90;;;;;;7374824;19;20022;-61
2023/03/01 05:47:52;;;;;;;23.83;20.58;;;-2.80;99.90;;;;;;7375401;19;20063;-64
2023/03/01 05:50:27;;;;;;;25.05;20.23;;;-2.90;99.90;;;;;;7376126;19;20015;-60
2023/03/01 05:53:08;;;;;;;23.73;20.38;;;-2.80;99.90;;;;;;7375247;19;20025;-60
2023/03/01 05:55:35;;;;;;;23.77;19.95;;;-2.90;99.90;;;;;;7376415;19;20018;-66
2023/03/01 05:58:04;;;;;;;24.38;21.58;;;-2.90;99.90;;;;;;7375873;19;20022;-65
2023/03/01 06:00:31;;;;;;;24.08;20.23;;;-2.90;99.90;;;;;;7372183;19;20477;-65
2023/03/01 06:02:58;;;;;;;25.23;21.13;;;-2.90;99.90;;;;;;7373438;19;20018;-65
2023/03/01 06:05:25;;;;;;;20.80;18.58;;;-2.90;99.90;;;;;;7372322;19;20022;-65
2023/03/01 06:07:52;;;;;;;24.92;21.67;;;-2.90;99.90;;;;;;7371168;19;20026;-65
2023/03/01 06:10:22;;;;;;;26.45;21.30;;;-2.80;99.90;;;;;;7371679;19;20041;-65
2023/03/01 06:12:49;;;;;;;24.80;20.92;;;-2.90;99.90;;;;;;7374408;19;20019;-65
2023/03/01 06:15:16;;;;;;;23.80;20.38;;;-2.80;99.90;;;;;;7370550;19;20022;-66
2023/03/01 06:17:44;;;;;;;26.67;22.02;;;-2.80;99.90;;;;;;7370890;19;20497;-65
2023/03/01 06:20:23;;;;;;;29.13;21.40;;;-2.80;99.90;;;;;;7369015;19;20022;-66
2023/03/01 06:22:50;;;;;;;26.73;21.70;;;-2.80;99.90;;;;;;7373223;19;20696;-66
2023/03/01 06:25:21;;;;;;;26.92;22.35;;;-2.80;99.90;;;;;;7377147;19;20381;-66
2023/03/01 06:27:48;;;;;;;26.60;20.75;;;-2.80;99.90;;;;;;7375779;19;20607;-65
2023/03/01 06:30:17;;;;;;;25.13;20.95;;;-2.80;99.90;;;;;;7373835;19;20432;-65
2023/03/01 06:32:43;;;;;;;23.67;19.75;;;-2.80;99.90;;;;;;7375197;19;20023;-65
2023/03/01 06:35:12;;;;;;;27.25;21.15;;;-2.90;99.90;;;;;;7374443;19;20509;-66
2023/03/01 06:37:39;;;;;;;27.30;22.02;;;-2.80;99.90;;;;;;7372812;19;20174;-66
2023/03/01 06:40:07;;;;;;;28.42;22.00;;;-2.80;99.90;;;;;;7370949;19;20018;-65
2023/03/01 06:42:40;;;;;;;27.77;22.13;;;-2.80;99.90;;;;;;7376255;19;20016;-65
2023/03/01 06:45:08;;;;;;;28.48;21.92;;;-2.80;99.90;;;;;;7373935;19;20026;-66
2023/03/01 06:47:34;;;;;;;27.95;21.15;;;-2.70;99.90;;;;;;7375312;19;20110;-66
2023/03/01 06:50:02;;;;;;;28.02;22.02;;;-2.70;99.90;;;;;;7371531;19;20046;-65
2023/03/01 06:52:31;;;;;;;30.98;24.10;;;-2.70;99.90;;;;;;7370040;19;20030;-66
2023/03/01 06:54:57;;;;;;;28.65;22.38;;;-2.70;99.90;;;;;;7373571;19;20011;-65
2023/03/01 06:57:28;;;;;;;27.60;21.67;;;-2.60;99.90;;;;;;7371754;19;20019;-61
2023/03/01 06:59:54;;;;;;;28.77;22.27;;;-2.60;99.90;;;;;;7370059;19;20022;-61
2023/03/01 07:02:21;;;;;;;27.90;23.15;;;-2.60;99.90;;;;;;7372210;19;20014;-61
2023/03/01 07:04:50;;;;;;;28.17;23.50;;;-2.50;99.90;;;;;;7371310;19;20040;-61
2023/03/01 07:07:17;;;;;;;28.80;23.92;;;-2.50;99.90;;;;;;7371556;19;20466;-61
2023/03/01 07:09:45;;;;;;;30.48;22.48;;;-2.50;99.90;;;;;;7372183;19;20018;-60
2023/03/01 07:12:12;;;;;;;28.77;24.13;;;-2.40;99.90;;;;;;7367981;19;20785;-60
2023/03/01 07:14:39;;;;;;;31.48;23.77;;;-2.40;99.90;;;;;;7371737;19;20661;-61
2023/03/01 07:17:10;;;;;;;32.75;25.15;;;-2.30;99.90;;;;;;7368541;19;20015;-61
2023/03/01 07:19:36;;;;;;;30.65;23.73;;;-2.20;99.90;;;;;;7368291;19;20022;-61
2023/03/01 07:22:04;;;;;;;29.77;23.65;;;-2.10;99.90;;;;;;7366551;19;20935;-60
2023/03/01 07:24:35;;;;;;;30.30;22.67;;;-2.00;99.90;;;;;;7374243;19;20473;-60
2023/03/01 07:27:01;;;;;;;29.17;22.08;;;-1.90;99.90;;;;;;7369098;19;20018;-60
2023/03/01 07:29:30;;;;;;;28.85;22.85;;;-1.80;99.90;;;;;;7375294;19;20030;-60
2023/03/01 07:31:56;;;;;;;31.92;23.23;;;-1.70;99.90;;;;;;7364582;19;20091;-65
2023/03/01 07:34:22;;;;;;;26.95;22.13;;;-1.50;99.90;;;;;;7372247;19;20465;-61
2023/03/01 07:36:52;;;;;;;29.55;23.65;;;-1.40;99.90;;;;;;7368246;19;20417;-61
2023/03/01 07:39:18;;;;;;;29.52;22.83;;;-1.20;99.90;;;;;;7371645;19;20078;-61
2023/03/01 07:41:44;;;;;;;27.88;23.42;;;-1.10;99.90;;;;;;7371736;19;20018;-61
2023/03/01 07:44:11;;;;;;;27.40;22.25;;;-0.90;99.90;;;;;;7368720;19;20026;-62
2023/03/01 07:46:39;;;;;;;28.05;22.55;;;-0.50;99.90;;;;;;7372981;19;20011;-62
2023/03/01 07:49:05;;;;;;;25.35;22.05;;;-0.10;99.90;;;;;;7369285;19;20098;-61
2023/03/01 07:51:32;;;;;;;27.70;21.83;;;0.20;99.90;;;;;;7370556;19;20022;-68
2023/03/01 07:53:58;;;;;;;26.08;21.30;;;0.50;99.90;;;;;;7369522;19;20018;-68
2023/03/01 07:56:24;;;;;;;26.80;21.85;;;1.00;99.90;;;;;;7368124;19;20025;-68
2023/03/01 07:58:51;;;;;;;26.88;22.60;;;1.50;99.90;;;;;;7371253;19;20030;-68
2023/03/01 08:01:20;;;;;;;28.00;23.05;;;1.90;99.90;;;;;;7372563;19;20533;-67
2023/03/01 08:03:47;;;;;;;25.55;22.38;;;2.40;99.90;;;;;;7372204;19;20029;-70
2023/03/01 08:06:16;;;;;;;24.25;21.65;;;3.00;99.90;;;;;;7372933;19;20038;-68
2023/03/01 08:08:43;;;;;;;28.27;23.58;;;3.50;99.90;;;;;;7369987;19;20024;-69
2023/03/01 08:11:12;;;;;;;25.23;22.52;;;4.10;99.90;;;;;;7370581;19;20033;-68
2023/03/01 08:13:49;;;;;;;25.50;22.15;;;4.50;99.90;;;;;;7368453;19;20378;-69
2023/03/01 08:16:19;;;;;;;27.55;24.60;;;4.70;99.90;;;;;;7368947;19;20014;-68
2023/03/01 08:18:45;;;;;;;28.13;24.13;;;5.30;99.90;;;;;;7369874;19;20031;-69
2023/03/01 08:21:17;;;;;;;29.92;25.73;;;5.70;99.90;;;;;;7371590;19;20700;-69
2023/03/01 08:23:44;;;;;;;28.98;25.92;;;6.00;99.90;;;;;;7369693;19;20024;-62
2023/03/01 08:26:13;;;;;;;27.33;24.40;;;6.40;99.90;;;;;;7368983;19;20018;-62
2023/03/01 08:28:40;;;;;;;27.73;24.15;;;6.90;99.90;;;;;;7368635;19;20075;-62
2023/03/01 08:31:38;;;;;;;27.83;24.85;;;6.90;99.90;;;;;;7372139;19;20025;-62
2023/03/01 08:34:11;;;;;;;27.38;23.15;;;7.30;99.90;;;;;;7371242;19;20502;-63
2023/03/01 08:36:41;;;;;;;25.63;22.85;;;7.70;99.90;;;;;;7370267;19;20021;-64
2023/03/01 08:39:10;;;;;;;24.48;22.08;;;8.60;99.90;;;;;;7369613;19;20014;-63
2023/03/01 08:41:37;;;;;;;27.65;24.48;;;8.40;99.90;;;;;;7371692;19;20397;-63
2023/03/01 08:44:06;;;;;;;26.25;23.63;;;8.70;99.90;;;;;;7370434;19;20042;-63
2023/03/01 08:46:38;;;;;;;25.75;23.15;;;8.90;99.90;;;;;;7369618;19;20026;-64
2023/03/01 08:49:09;;;;;;;28.42;25.33;;;9.40;99.90;;;;;;7366855;19;20018;-70
2023/03/01 08:51:38;;;;;;;25.65;22.90;;;9.80;99.90;;;;;;7367363;19;20101;-70
2023/03/01 08:54:19;;;;;;;25.60;22.93;;;9.20;99.90;;;;;;7366842;19;20026;-64
2023/03/01 08:56:46;;;;;;;25.63;22.95;;;9.80;99.90;;;;;;7370408;19;20026;-64
2023/03/01 08:59:14;;;;;;;24.52;21.80;;;10.10;99.90;;;;;;7369193;19;20021;-64
2023/03/01 09:01:49;;;;;;;25.30;22.80;;;10.50;99.90;;;;;;7365337;19;20114;-65
2023/03/01 09:04:16;;;;;;;25.88;22.83;;;10.80;99.90;;;;;;7369305;19;20107;-70
2023/03/01 09:06:43;;;;;;;23.83;21.30;;;11.10;99.90;;;;;;7376423;19;20023;-64
2023/03/01 09:09:17;;;;;;;21.17;19.02;;;11.40;99.90;;;;;;7373611;19;20037;-65
2023/03/01 09:11:45;;;;;;;22.98;20.67;;;11.40;94.90;;;;;;7373239;19;20788;-69
2023/03/01 09:14:13;;;;;;;22.63;20.35;;;11.70;99.90;;;;;;7373699;19;20041;-70
2023/03/01 09:16:40;;;;;;;22.08;19.75;;;12.00;99.20;;;;;;7375849;19;20015;-70
2023/03/01 09:19:13;;;;;;;23.88;21.38;;;12.20;99.90;;;;;;7377767;19;20026;-69
2023/03/01 09:21:39;;;;;;;26.13;22.73;;;12.50;99.90;;;;;;7375864;19;20732;-70
2023/03/01 09:24:12;;;;;;;25.17;21.67;;;12.60;94.80;;;;;;7373963;19;20594;-69
2023/03/01 09:26:38;;;;;;;23.08;20.67;;;12.90;92.80;;;;;;7377923;19;20097;-69
2023/03/01 09:29:04;;;;;;;23.02;18.63;;;13.10;92.60;;;;;;7378771;19;20074;-70
2023/03/01 09:31:31;;;;;;;20.52;16.60;;;13.30;79.70;;;;;;7373214;19;20018;-70
2023/03/01 09:33:57;;;;;;;19.10;16.52;;;13.90;67.30;;;;;;7373133;19;20351;-70
2023/03/01 09:36:27;;;;;;;20.92;18.55;;;13.50;63.80;;;;;;7375233;19;20029;-69
2023/03/01 09:38:54;;;;;;;22.17;19.95;;;13.60;64.20;;;;;;7375095;19;20026;-70
2023/03/01 09:41:45;;;;;;;17.70;15.82;;;13.60;64.30;;;;;;7372820;19;20529;-68
2023/03/01 09:44:31;;;;;;;15.00;13.50;;;13.80;59.90;;;;;;7370006;19;20030;-67
2023/03/01 09:47:00;;;;;;;14.80;12.95;;;14.40;60.40;;;;;;7374579;19;20022;-67
2023/03/01 09:49:39;;;;;;;15.88;12.70;;;14.50;58.60;;;;;;7374971;19;20015;-68
2023/03/01 09:52:20;;;;;;;13.55;11.95;;;14.60;58.70;;;;;;7372943;19;20561;-67
2023/03/01 09:54:49;;;;;;;13.05;10.20;;;14.50;55.80;;;;;;7372346;19;20106;-67
2023/03/01 09:57:26;;;;;;;13.32;11.68;;;15.00;56.00;;;;;;7372328;19;20402;-67
2023/03/01 10:00:22;;;;;;;12.75;11.23;;;15.30;54.80;;;;;;7375626;19;20665;-67
2023/03/01 10:02:52;;;;;;;12.10;9.45;;;15.30;51.40;;;;;;7371964;19;20022;-67
2023/03/01 10:05:31;;;;;;;9.43;6.70;;;15.20;52.00;;;;;;7372661;19;20778;-67
2023/03/01 10:08:22;;;;;;;9.27;6.72;;;14.70;50.00;;;;;;7372241;19;20022;-65
2023/03/01 10:10:48;;;;;;;10.13;6.35;;;15.60;50.40;;;;;;7373991;19;20101;-64
2023/03/01 10:13:19;;;;;;;10.00;7.40;;;15.00;49.10;;;;;;7374019;19;20014;-64
2023/03/01 10:15:58;;;;;;;9.50;6.55;;;15.20;49.90;;;;;;7372881;19;20503;-66
2023/03/01 10:18:32;;;;;;;9.23;8.27;;;15.50;48.80;;;;;;7374105;19;20022;-65
2023/03/01 10:21:08;;;;;;;9.85;7.65;;;15.20;48.20;;;;;;7375252;19;20800;-64
2023/03/01 10:23:38;;;;;;;8.68;7.63;;;15.80;49.80;;;;;;7371162;19;20482;-64
2023/03/01 10:26:05;;;;;;;8.75;7.55;;;15.90;48.90;;;;;;7372764;19;20826;-64
2023/03/01 10:28:40;;;;;;;8.75;7.60;;;16.10;48.70;;;;;;7367698;19;20022;-64
2023/03/01 10:31:15;;;;;;;9.30;8.15;;;15.50;47.10;;;;;;7370153;19;20612;-64
2023/03/01 10:33:43;;;;;;;10.23;7.38;;;15.90;48.20;;;;;;7373389;19;20577;-65
2023/03/01 10:36:09;;;;;;;9.23;6.90;;;16.30;48.50;;;;;;7368815;19;20350;-64
2023/03/01 10:38:54;;;;;;;9.52;7.20;;;16.40;48.60;;;;;;7373491;19;20051;-64
2023/03/01 10:41:23;;;;;;;14.32;9.50;;;16.50;45.30;;;;;;7371202;19;20022;-64
2023/03/01 10:44:00;;;;;;;9.88;7.15;;;16.10;46.40;;;;;;7372978;19;20085;-66
2023/03/01 10:46:26;;;;;;;9.00;7.43;;;15.80;46.30;;;;;;7373478;19;20121;-64
2023/03/01 10:49:14;;;;;;;10.23;8.13;;;16.40;46.50;;;;;;7373871;19;20011;-64
2023/03/01 10:51:43;;;;;;;10.20;7.60;;;16.20;46.10;;;;;;7370291;19;20594;-64
2023/03/01 10:54:36;;;;;;;9.70;6.63;;;16.40;45.20;;;;;;7372165;19;20034;-66
2023/03/01 10:57:05;;;;;;;8.00;5.95;;;16.10;44.00;;;;;;7370645;19;20032;-65
2023/03/01 10:59:40;;;;;;;5.82;5.10;;;16.40;45.10;;;;;;7370935;19;20601;-65
2023/03/01 11:02:26;;;;;;;11.15;9.60;;;16.20;43.60;;;;;;7368691;19;20035;-64
2023/03/01 11:05:13;;;;;;;7.97;5.70;;;16.00;44.60;;;;;;7370371;19;20061;-65
2023/03/01 11:08:10;;;;;;;8.65;6.05;;;15.90;44.60;;;;;;7371347;19;20382;-65
2023/03/01 11:11:15;;;;;;;8.40;5.57;;;16.80;44.40;;;;;;7368005;19;20014;-65
2023/03/01 11:13:59;;;;;;;7.35;4.28;;;16.80;42.20;;;;;;7369112;19;20017;-65
2023/03/01 11:16:38;;;;;;;9.15;6.85;;;17.10;42.20;;;;;;7368957;19;20596;-65
2023/03/01 11:19:21;;;;;;;7.22;5.95;;;17.20;41.70;;;;;;7366873;19;20578;-67
2023/03/01 11:22:21;;;;;;;6.60;5.47;;;17.30;42.00;;;;;;7367521;19;20538;-67
2023/03/01 11:24:55;;;;;;;8.77;6.65;;;18.00;41.20;;;;;;7368137;19;20019;-67
2023/03/01 11:27:39;;;;;;;10.60;7.32;;;17.80;42.00;;;;;;7369465;19;20042;-67
2023/03/01 11:30:25;;;;;;;9.63;7.88;;;17.50;41.70;;;;;;7371991;19;20011;-67
2023/03/01 11:33:03;;;;;;;8.25;5.97;;;17.40;41.10;;;;;;7370054;19;20117;-67
2023/03/01 11:35:32;;;;;;;6.60;4.88;;;17.70;41.80;;;;;;7371916;19;20710;-67
2023/03/01 11:38:01;;;;;;;14.90;9.82;;;17.30;41.90;;;;;;7370368;19;20627;-67
2023/03/01 11:40:39;;;;;;;9.30;7.82;;;17.20;42.10;;;;;;7371406;19;20771;-66
2023/03/01 11:43:11;;;;;;;7.60;6.43;;;17.60;42.40;;;;;;7372098;19;20022;-67
2023/03/01 11:46:16;;;;;;;6.38;5.03;;;18.30;41.10;;;;;;7369630;19;20055;-67
2023/03/01 11:48:52;;;;;;;9.65;7.75;;;18.20;41.00;;;;;;7370158;19;20549;-67
2023/03/01 11:51:38;;;;;;;8.25;6.57;;;17.90;41.10;;;;;;7367319;19;20022;-67
2023/03/01 11:54:22;;;;;;;12.70;10.82;;;17.50;41.50;;;;;;7369751;19;20879;-67
2023/03/01 11:57:00;;;;;;;10.30;9.20;;;17.50;41.20;;;;;;7368328;19;20127;-67
2023/03/01 11:59:55;;;;;;;13.00;10.70;;;17.50;42.30;;;;;;7369036;19;20042;-68
2023/03/01 12:02:40;;;;;;;13.25;11.85;;;17.50;42.60;;;;;;7371558;19;20022;-68
2023/03/01 12:05:42;;;;;;;9.73;8.55;;;17.70;42.20;;;;;;7368569;19;20041;-68
2023/03/01 12:08:45;;;;;;;13.55;11.82;;;17.80;42.00;;;;;;7369011;19;20396;-67
2023/03/01 12:11:37;;;;;;;9.95;7.68;;;17.80;42.90;;;;;;7368747;19;20385;-68
2023/03/01 12:14:32;;;;;;;9.73;8.75;;;18.70;42.00;;;;;;7372140;19;20028;-68
2023/03/01 12:17:05;;;;;;;11.43;9.63;;;19.00;42.30;;;;;;7369692;19;20016;-69
2023/03/01 12:19:40;;;;;;;11.73;10.23;;;18.40;41.50;;;;;;7372712;19;20055;-68
2023/03/01 12:22:40;;;;;;;11.35;9.20;;;17.40;40.80;;;;;;7371059;19;20018;-68
2023/03/01 12:25:39;;;;;;;10.88;9.82;;;18.10;43.40;;;;;;7367227;19;20022;-66
2023/03/01 12:28:24;;;;;;;10.82;9.52;;;17.70;42.90;;;;;;7365853;19;20030;-68
2023/03/01 12:31:28;;;;;;;12.60;11.40;;;18.10;43.00;;;;;;7363903;19;20019;-65
2023/03/01 12:34:11;;;;;;;14.95;13.40;;;18.10;41.60;;;;;;7370515;19;20378;-65
2023/03/01 12:37:15;;;;;;;11.32;10.07;;;18.40;42.50;;;;;;7364651;19;20015;-68
2023/03/01 12:40:06;;;;;;;12.90;9.23;;;18.80;42.30;;;;;;7374364;19;20014;-65
2023/03/01 12:42:58;;;;;;;8.52;7.57;;;18.50;41.40;;;;;;7377418;19;20025;-65
2023/03/01 12:45:46;;;;;;;7.80;7.00;;;18.50;42.50;;;;;;7374450;19;20022;-67
2023/03/01 12:48:31;;;;;;;8.50;7.68;;;18.70;40.40;;;;;;7376575;19;20014;-66
2023/03/01 12:51:26;;;;;;;10.32;8.07;;;18.50;41.40;;;;;;7375376;19;20053;-66
2023/03/01 12:53:57;;;;;;;10.05;7.95;;;18.20;40.50;;;;;;7377516;19;20014;-65
2023/03/01 12:56:30;;;;;;;7.80;7.00;;;17.80;41.40;;;;;;7373744;19;20041;-66
2023/03/01 12:59:08;;;;;;;8.55;7.28;;;17.90;40.40;;;;;;7372511;19;20026;-66